Terminal Aerodrome Forecast
Issued by NWS

Home | Current Version | Previous Version | Text Only | Print | Product List | Glossary On
Versions: 1 2 3 4 5 6 7 8 9 10 11 12 13 14 15 16
000
FTUS42 KTAE 252326
TAFDHN
TAF
KDHN 252326Z 2600/2624 24010KT P6SM BKN040
     FM260900 24008KT P6SM BKN007
     FM261400 25008KT P6SM SCT015
     FM261600 25013KT P6SM SCT040=

USA.gov is the U.S. government's official web portal to all federal, state and local government web resources and services.